Time;durP1;ratioP1;P1;durP2;ratioP2;P2;SDS_P1;SDS_P2;PMS_P1;PMS_P2;Temp;Humidity;BMP_temperature;BMP_pressure;BME280_temperature;BME280_humidity;BME280_pressure;Samples;Min_cycle;Max_cycle;Signal;HPM_P1;HPM_P2
2023/07/01 00:00:46;;;;;;;3.20;2.90;;;;;;;18.27;90.52;156056.34;4969598;28;20454;-82
2023/07/01 00:03:13;;;;;;;3.03;2.70;;;;;;;18.20;90.59;156040.69;4990401;28;20450;-82
2023/07/01 00:05:40;;;;;;;3.33;2.73;;;;;;;18.17;91.34;156032.88;4960781;28;20466;-82
2023/07/01 00:08:07;;;;;;;4.70;2.80;;;;;;;18.10;90.59;156013.34;4972974;28;20512;-83
2023/07/01 00:10:33;;;;;;;3.60;2.80;;;;;;;18.05;90.15;156001.66;4972691;28;20453;-82
2023/07/01 00:13:01;;;;;;;3.47;3.17;;;;;;;18.00;90.45;155988.59;4971717;28;20475;-82
2023/07/01 00:15:28;;;;;;;4.80;3.30;;;;;;;17.95;89.87;155975.56;4973007;28;20462;-82
2023/07/01 00:17:55;;;;;;;3.53;3.23;;;;;;;17.92;90.89;155966.50;4986154;28;20454;-82
2023/07/01 00:20:21;;;;;;;3.37;3.03;;;;;;;17.87;88.48;155954.72;4980408;28;20880;-82
2023/07/01 00:22:48;;;;;;;3.93;2.63;;;;;;;17.86;90.08;155952.16;4958070;28;20921;-82
2023/07/01 00:25:15;;;;;;;3.87;2.93;;;;;;;17.83;90.00;155943.03;4981109;28;20462;-82
2023/07/01 00:27:41;;;;;;;3.27;2.97;;;;;;;17.82;90.07;155941.72;4974812;28;20509;-82
2023/07/01 00:30:11;;;;;;;3.03;2.73;;;;;;;17.74;89.29;155920.88;4971275;28;21212;-82
2023/07/01 00:32:37;;;;;;;4.10;3.03;;;;;;;17.71;89.17;155911.81;4957494;28;20462;-83
2023/07/01 00:35:05;;;;;;;8.43;2.60;;;;;;;17.68;88.31;155903.97;4972979;28;20465;-82
2023/07/01 00:37:31;;;;;;;3.60;3.20;;;;;;;17.64;88.14;155894.84;4980701;28;20460;-82
2023/07/01 00:39:58;;;;;;;6.23;3.30;;;;;;;17.61;88.20;155888.34;4994803;28;20783;-82
2023/07/01 00:42:25;;;;;;;3.93;2.73;;;;;;;17.59;88.04;155881.84;5015331;28;20492;-82
2023/07/01 00:44:52;;;;;;;3.07;2.60;;;;;;;17.55;87.85;155872.72;4987394;28;20449;-82
2023/07/01 00:47:20;;;;;;;4.67;2.57;;;;;;;17.51;88.09;155862.28;5010163;28;20588;-82
2023/07/01 00:49:46;;;;;;;3.30;2.90;;;;;;;17.49;88.45;155855.78;5005491;28;20479;-82
2023/07/01 00:52:13;;;;;;;3.30;3.00;;;;;;;17.47;89.83;155850.56;4991261;28;21104;-82
2023/07/01 00:54:40;;;;;;;3.20;2.50;;;;;;;17.41;87.47;155836.25;4990368;28;20800;-82
2023/07/01 00:57:07;;;;;;;2.80;2.50;;;;;;;17.35;87.74;155819.31;4972484;28;20985;-81
2023/07/01 00:59:34;;;;;;;3.73;3.30;;;;;;;17.33;89.23;155814.13;4993679;28;20553;-82
2023/07/01 01:02:04;;;;;;;3.00;2.70;;;;;;;17.25;88.28;155793.28;5014199;28;20457;-82
2023/07/01 01:04:44;;;;;;;3.30;3.00;;;;;;;17.22;88.92;155785.47;5008685;28;20453;-82
2023/07/01 01:07:14;;;;;;;4.27;2.60;;;;;;;17.15;87.86;155768.59;5000595;28;20512;-82
2023/07/01 01:09:44;;;;;;;3.33;2.57;;;;;;;17.15;89.28;155767.28;4986064;28;20457;-82
2023/07/01 01:12:12;;;;;;;3.80;3.40;;;;;;;17.12;89.81;155760.78;4991112;28;21013;-82
2023/07/01 01:14:40;;;;;;;3.40;3.10;;;;;;;17.10;90.87;155754.25;4992313;28;20575;-82
2023/07/01 01:17:10;;;;;;;4.60;3.47;;;;;;;17.01;89.75;155733.44;4998585;28;20488;-82
2023/07/01 01:19:41;;;;;;;3.27;2.97;;;;;;;16.95;89.75;155716.50;5009122;28;20460;-82
2023/07/01 01:22:16;;;;;;;7.13;2.87;;;;;;;16.91;90.22;155706.13;4966922;28;20510;-82
2023/07/01 01:24:45;;;;;;;3.17;2.87;;;;;;;16.90;91.11;155704.81;4988185;28;20735;-81
2023/07/01 01:27:14;;;;;;;3.97;2.90;;;;;;;16.85;91.33;155691.81;4990259;28;20509;-82
2023/07/01 01:29:42;;;;;;;3.20;2.80;;;;;;;16.78;90.85;155673.59;4992774;28;20460;-81
2023/07/01 01:32:10;;;;;;;3.00;2.70;;;;;;;16.78;92.12;155672.28;4997258;28;20471;-82
2023/07/01 01:34:37;;;;;;;4.63;3.60;;;;;;;16.71;92.08;155654.03;5020627;28;20920;-82
2023/07/01 01:37:06;;;;;;;3.97;3.30;;;;;;;16.68;92.62;155647.53;4995662;28;20971;-82
2023/07/01 01:39:37;;;;;;;5.43;2.70;;;;;;;16.65;92.49;155639.78;5010409;28;20461;-82
2023/07/01 01:42:06;;;;;;;2.83;2.60;;;;;;;16.64;92.92;155635.84;4974361;28;20457;-82
2023/07/01 01:44:37;;;;;;;3.80;3.37;;;;;;;16.61;91.79;155629.34;4998747;28;20452;-82
2023/07/01 01:47:06;;;;;;;3.40;2.60;;;;;;;16.58;92.45;155621.53;4997314;28;21082;-81
2023/07/01 01:49:34;;;;;;;4.33;2.87;;;;;;;16.56;93.49;155616.34;5013695;28;20447;-81
2023/07/01 01:52:01;;;;;;;3.60;2.80;;;;;;;16.53;93.54;155608.53;4995712;28;20892;-82
2023/07/01 01:54:27;;;;;;;5.90;3.53;;;;;;;16.50;94.03;155600.66;5007675;28;20491;-82
2023/07/01 01:56:54;;;;;;;3.70;3.00;;;;;;;16.47;94.01;155591.59;4990866;28;20840;-81
2023/07/01 01:59:22;;;;;;;3.17;2.80;;;;;;;16.40;93.88;155575.97;4988905;28;20544;-82
2023/07/01 02:01:48;;;;;;;4.90;3.47;;;;;;;16.35;93.76;155562.97;5000589;28;20828;-82
2023/07/01 02:04:16;;;;;;;3.67;3.30;;;;;;;16.30;94.35;155549.97;5005743;28;20966;-81
2023/07/01 02:06:43;;;;;;;2.97;2.60;;;;;;;16.25;95.00;155535.66;5010859;28;20491;-81
2023/07/01 02:09:10;;;;;;;3.80;3.00;;;;;;;16.19;95.27;155521.38;4992507;28;20456;-82
2023/07/01 02:11:37;;;;;;;3.30;3.00;;;;;;;16.16;95.06;155512.25;4992715;28;20472;-81
2023/07/01 02:14:03;;;;;;;3.83;3.43;;;;;;;16.09;94.80;155494.06;4993152;28;20552;-81
2023/07/01 02:16:30;;;;;;;7.23;3.10;;;;;;;16.05;95.80;155484.94;5004276;28;20797;-81
2023/07/01 02:18:57;;;;;;;3.33;3.03;;;;;;;16.01;96.10;155473.25;4989674;28;20462;-81
2023/07/01 02:21:25;;;;;;;4.40;3.23;;;;;;;15.99;97.04;155468.06;4991258;28;21017;-81
2023/07/01 02:23:51;;;;;;;4.43;3.67;;;;;;;15.96;97.17;155460.25;5004681;28;20788;-81
2023/07/01 02:26:18;;;;;;;3.80;3.40;;;;;;;15.95;97.32;155457.63;5010884;28;20460;-81
2023/07/01 02:28:44;;;;;;;3.93;3.53;;;;;;;15.94;97.70;155456.31;5011000;28;20476;-81
2023/07/01 02:31:16;;;;;;;3.40;3.10;;;;;;;15.93;97.78;155452.44;4999880;28;20954;-81
2023/07/01 02:33:43;;;;;;;4.00;3.10;;;;;;;15.94;97.96;155455.06;4988771;28;20511;-81
2023/07/01 02:36:09;;;;;;;5.43;3.50;;;;;;;15.92;97.97;155451.13;5005282;28;20576;-81
2023/07/01 02:38:37;;;;;;;4.73;3.17;;;;;;;15.91;97.92;155447.25;4997401;28;20469;-81
2023/07/01 02:41:05;;;;;;;3.67;3.37;;;;;;;15.86;97.81;155434.25;4992672;28;20888;-81
2023/07/01 02:43:31;;;;;;;3.93;3.50;;;;;;;15.84;97.91;155430.31;5011155;28;20469;-81
2023/07/01 02:45:58;;;;;;;3.93;3.53;;;;;;;15.81;98.65;155422.53;5015638;28;20477;-82
2023/07/01 02:48:25;;;;;;;5.07;3.80;;;;;;;15.79;98.69;155418.63;5017168;28;20484;-82
2023/07/01 02:50:52;;;;;;;3.60;3.30;;;;;;;15.77;99.07;155413.47;4979592;28;20458;-81
2023/07/01 02:53:19;;;;;;;4.43;3.27;;;;;;;15.76;99.03;155409.53;4999413;28;20481;-82
2023/07/01 02:55:47;;;;;;;3.70;3.40;;;;;;;15.71;98.91;155397.84;4987541;28;20886;-82
2023/07/01 02:58:14;;;;;;;4.33;2.87;;;;;;;15.70;98.53;155395.22;4994772;28;20508;-82
2023/07/01 03:00:40;;;;;;;4.97;3.70;;;;;;;15.67;98.49;155387.41;4972815;28;20467;-82
2023/07/01 03:03:07;;;;;;;3.93;3.60;;;;;;;15.66;98.31;155384.84;5008825;28;21117;-81
2023/07/01 03:05:34;;;;;;;5.27;3.37;;;;;;;15.64;98.73;155379.66;4994935;28;21049;-81
2023/07/01 03:08:00;;;;;;;4.53;3.43;;;;;;;15.61;99.05;155371.84;5007389;28;20468;-81
2023/07/01 03:10:27;;;;;;;4.10;3.70;;;;;;;15.56;99.06;155357.56;4991738;28;20475;-82
2023/07/01 03:12:56;;;;;;;5.80;3.50;;;;;;;15.55;99.36;155354.94;5010009;28;20460;-82
2023/07/01 03:15:22;;;;;;;4.50;3.87;;;;;;;15.51;99.43;155345.88;5009881;28;20456;-82
2023/07/01 03:17:49;;;;;;;4.00;3.40;;;;;;;15.46;99.35;155332.81;4989139;28;20459;-82
2023/07/01 03:20:22;;;;;;;4.20;3.70;;;;;;;15.43;100.00;155325.00;4974100;28;20527;-82
2023/07/01 03:22:51;;;;;;;4.40;4.00;;;;;;;15.43;100.00;155323.72;5001684;28;21043;-82
2023/07/01 03:25:18;;;;;;;4.67;3.77;;;;;;;15.40;100.00;155317.22;4989057;28;20840;-82
2023/07/01 03:27:46;;;;;;;4.80;4.30;;;;;;;15.40;100.00;155317.22;4982109;28;20499;-81
2023/07/01 03:30:17;;;;;;;4.03;3.63;;;;;;;15.40;100.00;155317.22;4990669;28;20462;-81
2023/07/01 03:32:45;;;;;;;4.03;3.63;;;;;;;15.41;100.00;155319.78;4957897;28;20469;-81
2023/07/01 03:35:12;;;;;;;3.83;3.43;;;;;;;15.39;100.00;155314.59;4988365;28;21109;-82
2023/07/01 03:37:39;;;;;;;4.63;3.50;;;;;;;15.38;100.00;155311.97;5000422;28;20456;-81
2023/07/01 03:40:10;;;;;;;4.17;3.57;;;;;;;15.38;100.00;155310.72;4988536;28;20836;-83
2023/07/01 03:42:36;;;;;;;4.23;3.83;;;;;;;15.39;100.00;155313.28;4992836;28;20477;-82
2023/07/01 03:45:04;;;;;;;3.50;3.20;;;;;;;15.37;100.00;155309.41;4984598;28;20487;-83
2023/07/01 03:47:42;;;;;;;4.10;3.70;;;;;;;15.34;100.00;155301.59;4990892;28;20460;-83
2023/07/01 03:50:16;;;;;;;3.97;3.57;;;;;;;15.30;100.00;155291.22;5006051;28;20540;-83
2023/07/01 03:52:43;;;;;;;3.83;3.43;;;;;;;15.31;100.00;155292.50;4994406;28;20469;-83
2023/07/01 03:55:12;;;;;;;3.27;2.97;;;;;;;15.30;100.00;155291.22;4982336;28;20463;-83
2023/07/01 03:57:39;;;;;;;4.23;3.83;;;;;;;15.31;100.00;155292.50;4984942;28;20975;-83
2023/07/01 04:00:08;;;;;;;3.90;3.40;;;;;;;15.33;100.00;155298.97;5001992;28;20986;-82
2023/07/01 04:02:40;;;;;;;5.30;3.60;;;;;;;15.33;100.00;155298.97;5003180;28;20587;-82
2023/07/01 04:05:10;;;;;;;4.23;3.70;;;;;;;15.34;100.00;155301.59;4976924;28;20452;-82
2023/07/01 04:07:37;;;;;;;4.40;3.70;;;;;;;15.37;100.00;155309.41;4995501;28;20472;-83
2023/07/01 04:10:05;;;;;;;3.80;3.50;;;;;;;15.43;100.00;155325.00;4992069;28;20990;-83
2023/07/01 04:12:32;;;;;;;3.70;3.30;;;;;;;15.50;100.00;155341.94;5008176;28;20461;-83
2023/07/01 04:14:59;;;;;;;3.90;3.50;;;;;;;15.60;100.00;155369.22;5010696;28;20524;-83
2023/07/01 04:17:26;;;;;;;4.23;3.83;;;;;;;15.68;100.00;155390.03;5011300;28;20457;-83
2023/07/01 04:19:54;;;;;;;4.30;3.87;;;;;;;15.81;100.00;155422.53;5011772;28;20460;-83
2023/07/01 04:22:21;;;;;;;3.47;3.17;;;;;;;15.94;100.00;155455.06;5004514;28;20464;-83
2023/07/01 04:24:47;;;;;;;4.20;3.67;;;;;;;16.07;100.00;155488.88;5007173;28;20455;-83
2023/07/01 04:27:14;;;;;;;4.20;3.90;;;;;;;16.24;99.44;155533.06;4990539;28;20569;-84
2023/07/01 04:29:41;;;;;;;4.97;3.80;;;;;;;16.38;99.00;155569.47;5015084;28;20480;-84
2023/07/01 04:32:08;;;;;;;4.30;3.90;;;;;;;16.53;97.70;155608.53;5007011;28;20819;-84
2023/07/01 04:34:34;;;;;;;4.27;3.70;;;;;;;16.69;97.68;155650.16;4985590;28;20484;-84
2023/07/01 04:37:03;;;;;;;4.67;4.17;;;;;;;16.83;96.36;155686.59;4983445;28;20468;-84
2023/07/01 04:39:30;;;;;;;4.43;3.63;;;;;;;16.96;95.14;155719.13;4987335;28;20457;-83
2023/07/01 04:41:57;;;;;;;3.57;3.27;;;;;;;17.10;94.75;155754.25;4996955;28;20519;-83
2023/07/01 04:44:24;;;;;;;4.73;4.03;;;;;;;17.23;93.33;155788.09;4998498;28;20451;-83
2023/07/01 04:46:51;;;;;;;4.83;3.47;;;;;;;17.36;93.22;155821.94;5011294;28;20469;-84
2023/07/01 04:49:18;;;;;;;4.23;2.97;;;;;;;17.48;92.57;155853.16;4990479;28;20469;-83
2023/07/01 04:51:44;;;;;;;4.70;3.57;;;;;;;17.62;91.73;155889.66;4978957;28;20461;-84
2023/07/01 04:54:12;;;;;;;4.43;3.80;;;;;;;17.71;91.16;155913.13;4991605;28;20559;-83
2023/07/01 04:56:39;;;;;;;3.50;3.20;;;;;;;17.84;90.26;155945.66;4987670;28;20471;-84
2023/07/01 04:59:06;;;;;;;4.90;3.67;;;;;;;17.96;88.88;155978.19;4991145;28;20467;-84
2023/07/01 05:01:33;;;;;;;3.73;3.37;;;;;;;18.08;88.60;156009.41;4998468;28;20456;-84
2023/07/01 05:03:59;;;;;;;4.43;3.50;;;;;;;18.20;88.65;156040.69;5004107;28;21139;-84
2023/07/01 05:06:26;;;;;;;5.30;3.40;;;;;;;18.32;87.99;156069.38;4997792;28;20540;-84
2023/07/01 05:08:53;;;;;;;4.70;4.20;;;;;;;18.41;87.69;156092.78;4986354;28;20477;-84
2023/07/01 05:11:21;;;;;;;4.70;3.50;;;;;;;18.55;87.14;156129.31;4986721;28;20457;-83
2023/07/01 05:13:47;;;;;;;4.30;3.50;;;;;;;18.65;85.90;156155.38;4998375;28;20467;-83
2023/07/01 05:16:14;;;;;;;5.03;3.43;;;;;;;18.78;85.81;156189.22;4996882;28;20919;-83
2023/07/01 05:18:41;;;;;;;4.07;3.63;;;;;;;18.96;85.65;156236.13;4995364;28;20613;-84
2023/07/01 05:21:07;;;;;;;3.67;3.20;;;;;;;19.14;83.86;156283.03;4981160;28;20461;-83
2023/07/01 05:23:37;;;;;;;4.37;3.93;;;;;;;19.28;82.63;156319.53;4997671;28;20901;-84
2023/07/01 05:26:05;;;;;;;5.97;4.03;;;;;;;19.38;82.89;156345.66;4981716;28;20828;-83
2023/07/01 05:28:33;;;;;;;4.23;3.70;;;;;;;19.51;83.05;156376.97;4981785;28;20857;-84
2023/07/01 05:30:59;;;;;;;3.83;3.43;;;;;;;19.64;81.83;156410.84;4981087;28;20535;-83
2023/07/01 05:33:26;;;;;;;5.30;3.20;;;;;;;19.80;80.76;156452.59;4980917;28;20684;-83
2023/07/01 05:35:53;;;;;;;3.60;3.30;;;;;;;19.87;79.60;156470.81;4982539;28;20470;-83
2023/07/01 05:38:19;;;;;;;3.50;3.20;;;;;;;19.99;79.20;156502.09;4999068;28;20526;-83
2023/07/01 05:40:46;;;;;;;4.03;3.63;;;;;;;20.16;78.75;156546.44;4984213;28;20449;-84
2023/07/01 05:43:12;;;;;;;3.50;3.20;;;;;;;20.25;75.46;156570.00;4981436;28;20457;-84
2023/07/01 05:45:40;;;;;;;3.80;3.50;;;;;;;20.32;76.57;156588.25;4979386;28;20461;-84
2023/07/01 05:48:07;;;;;;;5.73;3.10;;;;;;;20.49;76.28;156632.56;4994361;28;20472;-84
2023/07/01 05:50:34;;;;;;;3.30;3.00;;;;;;;20.69;74.25;156682.16;4979949;28;20458;-84
2023/07/01 05:53:01;;;;;;;3.30;3.00;;;;;;;20.82;75.07;156717.38;4974735;28;21104;-84
2023/07/01 05:55:31;;;;;;;3.00;2.70;;;;;;;20.91;74.34;156739.56;4991575;28;20472;-84
2023/07/01 05:57:57;;;;;;;3.77;3.27;;;;;;;20.95;73.51;156751.31;4993636;28;20861;-84
2023/07/01 06:00:24;;;;;;;3.13;2.83;;;;;;;21.06;71.77;156778.69;4978038;28;20465;-84
2023/07/01 06:02:52;;;;;;;3.30;3.00;;;;;;;21.22;69.69;156820.53;4999717;28;20484;-84
2023/07/01 06:05:19;;;;;;;6.47;3.60;;;;;;;21.35;70.85;156854.44;4993477;28;20468;-85
2023/07/01 06:07:46;;;;;;;2.87;2.60;;;;;;;21.48;68.85;156888.38;4998979;28;20487;-86
2023/07/01 06:10:13;;;;;;;3.43;3.10;;;;;;;21.55;68.22;156905.38;4997388;28;20469;-86
2023/07/01 06:12:40;;;;;;;4.07;3.60;;;;;;;21.65;69.57;156932.78;5000267;28;20507;-86
2023/07/01 06:15:08;;;;;;;5.10;3.33;;;;;;;21.76;69.65;156961.47;4984390;28;20472;-86
2023/07/01 06:17:34;;;;;;;4.33;3.40;;;;;;;21.84;68.67;156982.38;5001339;28;20986;-89
2023/07/01 06:20:03;;;;;;;4.10;3.30;;;;;;;22.00;68.59;157022.88;5000939;28;20840;-87
2023/07/01 06:22:29;;;;;;;3.37;2.73;;;;;;;21.99;67.48;157019.00;5001208;28;20547;-86
2023/07/01 06:24:56;;;;;;;3.50;2.60;;;;;;;22.13;69.14;157055.56;4983557;28;20453;-87
2023/07/01 06:27:23;;;;;;;5.83;3.03;;;;;;;22.00;66.05;157021.63;4966586;28;20815;-87
2023/07/01 06:29:50;;;;;;;3.20;2.90;;;;;;;22.02;65.03;157026.84;4980048;28;20481;-87
2023/07/01 06:32:17;;;;;;;4.07;3.60;;;;;;;22.18;66.66;157068.63;4965307;28;20558;-88
2023/07/01 06:34:44;;;;;;;4.30;3.00;;;;;;;22.32;66.80;157106.47;4987050;28;20483;-88
2023/07/01 06:37:12;;;;;;;3.23;2.90;;;;;;;22.43;66.37;157133.91;4974104;28;20532;-88
2023/07/01 06:39:39;;;;;;;3.20;2.57;;;;;;;22.62;64.28;157182.25;5001020;28;20967;-88
2023/07/01 06:42:06;;;;;;;4.40;3.10;;;;;;;22.65;64.58;157191.47;4984244;28;20477;-88
2023/07/01 06:44:33;;;;;;;3.20;2.67;;;;;;;22.79;64.74;157228.06;4982582;28;20448;-89
2023/07/01 06:47:00;;;;;;;5.27;3.47;;;;;;;22.85;65.13;157242.38;4988991;28;20574;-88
2023/07/01 06:49:27;;;;;;;4.10;2.67;;;;;;;23.00;65.69;157281.63;4991571;28;20495;-89
2023/07/01 06:51:54;;;;;;;3.10;2.77;;;;;;;23.00;64.89;157282.94;4984036;28;20467;-88
2023/07/01 06:54:22;;;;;;;3.57;2.93;;;;;;;23.07;61.26;157298.56;4984453;28;20457;-88
2023/07/01 06:56:48;;;;;;;2.63;2.43;;;;;;;23.22;63.27;157337.81;4972415;28;20441;-89
2023/07/01 06:59:17;;;;;;;3.97;2.50;;;;;;;23.34;61.18;157369.16;4987393;28;20460;-89
2023/07/01 07:01:50;;;;;;;4.03;3.00;;;;;;;23.45;63.00;157397.97;4996463;28;20549;-89
2023/07/01 07:04:17;;;;;;;3.90;2.90;;;;;;;23.48;60.33;157405.81;4988006;28;20480;-89
2023/07/01 07:06:43;;;;;;;3.17;2.87;;;;;;;23.51;60.06;157413.69;4985691;28;20511;-88
2023/07/01 07:09:14;;;;;;;3.37;2.40;;;;;;;23.63;59.77;157445.03;4990799;28;20473;-87
2023/07/01 07:11:42;;;;;;;2.83;2.53;;;;;;;23.75;59.57;157475.13;4985796;28;20460;-87
2023/07/01 07:14:09;;;;;;;3.00;2.53;;;;;;;23.84;54.65;157498.63;4983323;28;20974;-87
2023/07/01 07:16:36;;;;;;;5.33;2.73;;;;;;;23.95;57.58;157528.69;4989282;28;20457;-88
2023/07/01 07:19:02;;;;;;;3.00;2.70;;;;;;;24.10;58.27;157567.97;4984102;28;20580;-87
2023/07/01 07:21:29;;;;;;;3.23;2.33;;;;;;;24.26;56.07;157608.50;5006999;28;20453;-87
2023/07/01 07:23:56;;;;;;;2.67;2.47;;;;;;;24.31;52.10;157620.25;4986800;28;20472;-87
2023/07/01 07:26:23;;;;;;;3.00;2.47;;;;;;;24.30;53.43;157617.66;4983927;28;21006;-87
2023/07/01 07:28:51;;;;;;;3.00;2.70;;;;;;;24.47;53.27;157662.13;4989758;28;20476;-88
2023/07/01 07:31:25;;;;;;;3.57;2.50;;;;;;;24.51;55.81;157672.59;4995073;28;20908;-87
2023/07/01 07:33:52;;;;;;;3.27;2.30;;;;;;;24.63;52.49;157705.28;4988774;28;20487;-88
2023/07/01 07:36:19;;;;;;;3.13;2.47;;;;;;;24.73;54.13;157731.44;4994176;28;20437;-88
2023/07/01 07:38:51;;;;;;;3.30;2.40;;;;;;;24.69;56.78;157719.69;4987890;28;20469;-88
2023/07/01 07:41:18;;;;;;;6.33;2.43;;;;;;;24.68;54.69;157718.38;4985298;28;20448;-89
2023/07/01 07:43:45;;;;;;;2.90;2.60;;;;;;;25.00;54.01;157800.84;4983901;28;20726;-89
2023/07/01 07:46:17;;;;;;;2.43;2.23;;;;;;;25.04;54.00;157810.00;4987246;28;20464;-89
2023/07/01 07:48:44;;;;;;;3.07;2.77;;;;;;;25.12;54.72;157832.28;4981168;28;20526;-90
2023/07/01 07:51:14;;;;;;;5.70;2.80;;;;;;;25.23;52.18;157861.03;4996312;28;20457;-88
2023/07/01 07:53:42;;;;;;;5.40;2.77;;;;;;;25.41;54.15;157906.84;5001178;28;20451;-90
2023/07/01 07:56:13;;;;;;;2.70;2.50;;;;;;;25.39;49.97;157902.91;4965317;28;20542;-89
2023/07/01 07:58:40;;;;;;;5.70;2.90;;;;;;;25.27;54.02;157871.53;4979595;28;20976;-88
2023/07/01 08:01:07;;;;;;;2.60;2.37;;;;;;;25.33;52.32;157885.91;4979026;28;20476;-89
2023/07/01 08:03:35;;;;;;;3.23;2.80;;;;;;;25.48;54.03;157923.91;5001673;28;20444;-90
2023/07/01 08:06:02;;;;;;;3.20;2.57;;;;;;;25.49;53.84;157926.53;4987850;28;20461;-88
2023/07/01 08:08:31;;;;;;;2.83;2.53;;;;;;;25.60;53.35;157955.34;4986688;28;20465;-89
2023/07/01 08:10:59;;;;;;;3.90;2.90;;;;;;;25.61;51.03;157959.25;4966251;28;20477;-89
2023/07/01 08:13:26;;;;;;;3.00;2.70;;;;;;;25.70;52.52;157982.81;4988828;28;20503;-90
2023/07/01 08:15:53;;;;;;;5.60;2.90;;;;;;;25.65;54.64;157968.44;4982980;28;20456;-89
2023/07/01 08:18:20;;;;;;;5.17;2.77;;;;;;;25.79;53.71;158005.03;4984382;28;20483;-89
2023/07/01 08:20:50;;;;;;;3.20;2.90;;;;;;;25.87;51.89;158026.00;4973686;28;20549;-90
2023/07/01 08:23:19;;;;;;;5.33;3.10;;;;;;;25.85;48.39;158020.78;5000970;28;20473;-90
2023/07/01 08:25:49;;;;;;;3.43;3.13;;;;;;;26.00;50.43;158060.03;4984180;28;20453;-89
2023/07/01 08:28:16;;;;;;;4.27;3.30;;;;;;;26.08;54.40;158080.97;4992054;28;20476;-90
2023/07/01 08:30:46;;;;;;;3.57;3.07;;;;;;;26.00;47.41;158060.03;4966981;28;20482;-90
2023/07/01 08:33:13;;;;;;;4.50;3.40;;;;;;;25.93;47.75;158041.72;4981156;28;20483;-90
2023/07/01 08:35:42;;;;;;;3.00;2.70;;;;;;;25.92;51.31;158039.13;4987897;28;20567;-89
2023/07/01 08:38:14;;;;;;;4.13;3.20;;;;;;;26.04;52.81;158070.53;4968678;28;20494;-90
2023/07/01 08:40:41;;;;;;;3.67;3.20;;;;;;;26.12;51.72;158091.47;4969846;28;20450;-90
2023/07/01 08:43:11;;;;;;;3.53;3.23;;;;;;;26.15;51.28;158098.06;4995618;28;20467;-90
2023/07/01 08:45:38;;;;;;;5.03;2.80;;;;;;;26.01;51.01;158064.00;4993885;28;20441;-88
2023/07/01 08:48:08;;;;;;;4.53;3.57;;;;;;;26.02;55.26;158065.31;4984760;28;20464;-90
2023/07/01 08:50:39;;;;;;;3.50;3.20;;;;;;;25.91;50.87;158036.50;4977336;28;20477;-89
2023/07/01 08:53:09;;;;;;;4.77;3.60;;;;;;;25.92;57.21;158039.13;4999401;28;20607;-90
2023/07/01 08:55:39;;;;;;;3.50;3.20;;;;;;;26.09;54.45;158083.63;4989463;28;20559;-90
2023/07/01 08:58:09;;;;;;;4.67;3.50;;;;;;;26.12;50.76;158091.47;4998725;28;20599;-90
2023/07/01 09:00:36;;;;;;;3.33;3.03;;;;;;;26.09;50.32;158083.63;4996715;28;20840;-89
2023/07/01 09:03:06;;;;;;;4.07;2.80;;;;;;;26.15;51.76;158098.06;4967882;28;20495;-91
2023/07/01 09:05:32;;;;;;;6.10;2.80;;;;;;;26.12;48.84;158091.47;4994329;28;20461;-82
2023/07/01 09:07:59;;;;;;;2.87;2.60;;;;;;;26.24;52.24;158121.66;4987962;28;20544;-82
2023/07/01 09:10:26;;;;;;;2.37;2.17;;;;;;;26.34;50.07;158149.16;4979690;28;20554;-82
2023/07/01 09:12:54;;;;;;;3.50;2.93;;;;;;;26.46;51.65;158180.56;4994040;28;20457;-82
2023/07/01 09:15:20;;;;;;;3.20;2.70;;;;;;;26.48;51.65;158185.81;4995853;28;20456;-82
2023/07/01 09:17:47;;;;;;;2.77;2.57;;;;;;;26.50;47.81;158191.03;4978740;28;20824;-82
2023/07/01 09:20:14;;;;;;;3.10;2.57;;;;;;;26.44;49.82;158174.03;4994458;28;20972;-82
2023/07/01 09:22:42;;;;;;;3.00;2.70;;;;;;;26.31;52.43;158141.31;4999147;28;20550;-82
2023/07/01 09:25:09;;;;;;;3.00;2.60;;;;;;;26.19;49.82;158109.84;4994582;28;20978;-82
2023/07/01 09:27:46;;;;;;;3.37;2.60;;;;;;;26.22;51.63;158116.38;4994877;28;21088;-82
2023/07/01 09:30:25;;;;;;;3.63;3.20;;;;;;;26.27;49.38;158130.81;4986964;28;20473;-82
2023/07/01 09:32:52;;;;;;;3.03;2.50;;;;;;;26.19;46.96;158109.84;4977994;28;20516;-82
2023/07/01 09:35:19;;;;;;;3.37;2.77;;;;;;;26.21;49.61;158115.06;4995844;28;20790;-82
2023/07/01 09:37:45;;;;;;;2.83;2.27;;;;;;;26.28;46.46;158133.44;4998610;28;20893;-82
2023/07/01 09:40:24;;;;;;;2.50;2.30;;;;;;;26.43;49.71;158172.72;4979237;28;21003;-82
2023/07/01 09:42:54;;;;;;;3.60;2.83;;;;;;;26.52;47.97;158196.31;4975318;28;20539;-89
2023/07/01 09:45:30;;;;;;;2.43;2.23;;;;;;;26.56;48.50;158206.75;4991731;28;20472;-90
2023/07/01 09:48:10;;;;;;;4.00;2.43;;;;;;;26.55;50.31;158204.19;4997785;28;20558;-89
2023/07/01 09:50:40;;;;;;;2.67;2.07;;;;;;;26.55;44.69;158202.84;4986323;28;20481;-89
2023/07/01 09:53:19;;;;;;;2.93;2.20;;;;;;;26.59;51.18;158214.63;4984051;28;20499;-82
2023/07/01 09:55:46;;;;;;;3.53;2.50;;;;;;;26.46;44.04;158180.56;4982750;28;20449;-82
2023/07/01 09:58:13;;;;;;;2.27;2.07;;;;;;;26.48;47.66;158185.81;5000722;28;20511;-81
2023/07/01 10:00:41;;;;;;;3.33;1.90;;;;;;;26.42;42.72;158170.06;5007118;28;20499;-81
2023/07/01 10:03:07;;;;;;;2.93;2.20;;;;;;;26.30;45.59;158138.66;5002114;28;20468;-81
2023/07/01 10:05:34;;;;;;;2.80;2.10;;;;;;;26.24;45.72;158122.94;4997542;28;21038;-81
2023/07/01 10:08:01;;;;;;;3.80;2.50;;;;;;;26.13;46.56;158094.16;4983151;28;20980;-81
2023/07/01 10:10:30;;;;;;;4.47;2.37;;;;;;;26.07;46.14;158077.06;5002972;28;20483;-82
2023/07/01 10:13:01;;;;;;;2.87;2.40;;;;;;;26.03;44.19;158067.88;5002464;28;20464;-81
2023/07/01 10:15:31;;;;;;;2.60;2.07;;;;;;;26.01;44.35;158062.66;5003152;28;20444;-80
2023/07/01 10:17:59;;;;;;;2.53;2.33;;;;;;;25.98;42.93;158054.81;5005497;28;20815;-82
2023/07/01 10:20:27;;;;;;;2.47;2.27;;;;;;;25.99;47.33;158057.44;5005300;28;20457;-81
2023/07/01 10:22:55;;;;;;;3.43;2.37;;;;;;;25.98;45.08;158054.81;5001468;28;20527;-81
2023/07/01 10:25:31;;;;;;;2.60;2.40;;;;;;;26.01;42.73;158062.66;4988777;28;20481;-81
2023/07/01 10:28:08;;;;;;;2.47;2.10;;;;;;;26.00;47.21;158061.34;4989074;28;20456;-81
2023/07/01 10:31:12;;;;;;;3.13;2.80;;;;;;;25.92;47.91;158040.41;5002731;28;20460;-81
2023/07/01 10:33:53;;;;;;;3.83;2.70;;;;;;;25.82;45.72;158014.22;5004458;28;21021;-80
2023/07/01 10:36:20;;;;;;;2.30;2.10;;;;;;;25.83;45.08;158015.53;4999945;28;20860;-77
2023/07/01 10:38:47;;;;;;;3.20;2.23;;;;;;;25.91;46.52;158037.81;5003142;28;20458;-82
2023/07/01 10:41:13;;;;;;;2.90;2.53;;;;;;;25.91;46.66;158036.50;5003658;28;20468;-80
2023/07/01 10:43:40;;;;;;;2.90;2.40;;;;;;;25.95;47.02;158046.94;4985341;28;20457;-80
2023/07/01 10:46:14;;;;;;;2.47;2.27;;;;;;;26.02;48.62;158066.63;4997689;28;20452;-80
2023/07/01 10:48:42;;;;;;;4.13;2.70;;;;;;;26.08;44.18;158080.97;4983930;28;20462;-81
2023/07/01 10:51:11;;;;;;;2.63;2.13;;;;;;;26.15;45.97;158098.06;5003443;28;21011;-81
2023/07/01 10:54:00;;;;;;;5.43;2.50;;;;;;;26.21;45.42;158115.06;4986308;28;20448;-81
2023/07/01 10:56:29;;;;;;;2.73;2.17;;;;;;;26.30;44.25;158138.66;4980294;28;20481;-82
2023/07/01 10:59:25;;;;;;;2.57;2.23;;;;;;;26.48;43.20;158184.47;4982194;28;20505;-82
2023/07/01 11:01:56;;;;;;;3.40;2.60;;;;;;;26.69;44.55;158238.22;4986940;28;20452;-82
2023/07/01 11:04:23;;;;;;;3.60;3.30;;;;;;;26.81;44.60;158271.00;4985082;28;20482;-81
2023/07/01 11:06:53;;;;;;;3.87;3.17;;;;;;;26.80;42.23;158268.38;4986914;28;20449;-77
2023/07/01 11:09:31;;;;;;;3.87;2.87;;;;;;;26.83;42.78;158276.25;4999776;28;20528;-77
2023/07/01 11:11:58;;;;;;;3.40;3.07;;;;;;;26.91;43.24;158295.88;4998429;28;20479;-76
2023/07/01 11:14:30;;;;;;;3.37;2.70;;;;;;;26.91;42.06;158295.88;5003165;28;21039;-77
2023/07/01 11:17:06;;;;;;;3.23;2.93;;;;;;;26.96;43.90;158310.28;4998657;28;20460;-77
2023/07/01 11:19:33;;;;;;;3.90;3.23;;;;;;;26.91;44.05;158295.88;4987921;28;20540;-78
2023/07/01 11:22:01;;;;;;;3.70;3.17;;;;;;;26.85;44.07;158280.16;4996150;28;20910;-78
2023/07/01 11:24:29;;;;;;;3.00;2.70;;;;;;;26.83;46.54;158274.91;5000552;28;21072;-78
2023/07/01 11:27:01;;;;;;;4.20;3.33;;;;;;;26.75;44.17;158253.91;4998505;28;20532;-78
2023/07/01 11:29:27;;;;;;;3.17;2.87;;;;;;;26.67;46.64;158234.25;4997068;28;20835;-78